עמוד ראשי
METAR-TAF:

METAR-TAF

שדות תעופה :

David, פנמה

קו רוחב: 08-24N, קו אורך: 082-25W, גובה: 29מטר

תצפית מזג אוויר נוכחית

הדו"ח נערך לפני 39דקות, בשעה 16:00 UTC
רוח 10קשר מכיוון צפון, משתנה בין צפון/צפון-מערב ו צפון-מזרח
טמפרטורת 33 צלסיוס
לחות 49%
לחץ 1011 hPa
ראות 10 קילומטר או יותר
מעט עננים בגובה 1700רגל

METAR: MPDA 241600Z 01010KT 330V040 9999 FEW017 33/21 Q1011

זמן: 11:39 (16:39 UTC)

תחזית

הדו"ח נערך לפני 5 שעות ו 39דקות, בשעה 11:00 UTC
תחזית בתוקף מ 24 ב 12 UTC עד 24 ב 24 UTC
רוח 7קשר מכיוון דרום/דרום-מערב
ראות 10 קילומטר או יותר
עננים פזורים בגובה 1800רגל
זמנית מ -
24 ב 12 UTC עד 24 ב 15 UTC
רוח 3קשר עם כיוונים משתנים
זמנית מ -
24 ב 19 UTC עד 24 ב 23 UTC
ראות: 4000מטר
עננים פזורים בגובה 1500רגל , קומולונימבוס.
עננים בינוניים בגובה 8000רגל
סופת רעמים, גשם,

TAF: MPDA 241100Z 2412/2424 21007KT 9999 SCT018 TEMPO 2412/2415 VRB03KT TEMPO 2419/2423 4000 TSRA SCT015CB BKN080

תצפיות ותחזיות מזג אוויר לגבי יותר מ- 4,000 שדות תעופה ברחבי העולם. דוחות METAR ו- TAF.

התחנות הזמינות מסומנות בנקודות צהובות ואדומות על גבי המפה.

העבר את העכבר לנקודה הצבעונית על מנת לראות את שם התחנה.

לאחר מכן, לחץ כדי לראות את תוכן ואת תחזיות מזג האוויר.

כדי לשנות את המפה: לחץ על הכפתורים הירוקים עם הפלוס השחור כדי להתקרב; על הכפתור הירוק עם המקף כדי להתרחק; או בחיצים הירוקים למפות סמוכות.


METAR-TAF: